Time;durP1;ratioP1;P1;durP2;ratioP2;P2;SDS_P1;SDS_P2;PMS_P1;PMS_P2;Temp;Humidity;BMP_temperature;BMP_pressure;BME280_temperature;BME280_humidity;BME280_pressure;Samples;Min_cycle;Max_cycle;Signal;HPM_P1;HPM_P2
2021/12/02 00:04:48;;;;;;;14.57;10.50;;;;;;;;;;10273504;28;20065;-63
2021/12/02 00:09:47;;;;;;;15.25;9.75;;;;;;;;;;10284474;28;20485;-63
2021/12/02 00:14:48;;;;;;;16.00;10.88;;;;;;;;;;10273373;28;20069;-63
2021/12/02 00:25:04;;;;;;;22.27;13.75;;;;;;;;;;10284830;28;20072;-62
2021/12/02 00:30:04;;;;;;;19.92;12.60;;;;;;;;;;10272729;28;20068;-62
2021/12/02 00:35:02;;;;;;;20.80;13.68;;;;;;;;;;10286480;28;20085;-62
2021/12/02 00:40:01;;;;;;;12.68;9.73;;;;;;;;;;10272555;28;20064;-62
2021/12/02 00:44:59;;;;;;;12.98;9.10;;;;;;;;;;10272427;28;20045;-62
2021/12/02 00:49:58;;;;;;;17.95;11.70;;;;;;;;;;10271888;28;20457;-63
2021/12/02 00:54:57;;;;;;;14.90;10.02;;;;;;;;;;10281730;28;20138;-63
2021/12/02 00:59:57;;;;;;;17.25;10.63;;;;;;;;;;10283204;28;20512;-63
2021/12/02 01:04:56;;;;;;;10.05;7.40;;;;;;;;;;10292726;28;20508;-63
2021/12/02 01:09:55;;;;;;;19.30;12.23;;;;;;;;;;10291148;28;20156;-62
2021/12/02 01:14:54;;;;;;;8.25;6.43;;;;;;;;;;10287995;28;20068;-63
2021/12/02 01:19:52;;;;;;;14.32;11.75;;;;;;;;;;10279852;28;20595;-64
2021/12/02 01:24:51;;;;;;;13.65;6.22;;;;;;;;;;10279127;28;20073;-63
2021/12/02 01:29:53;;;;;;;10.27;6.68;;;;;;;;;;10279949;28;20068;-64
2021/12/02 01:34:53;;;;;;;6.35;4.95;;;;;;;;;;10293905;28;20084;-64
2021/12/02 01:39:51;;;;;;;13.48;8.05;;;;;;;;;;10289875;28;20072;-64
2021/12/02 01:44:52;;;;;;;4.47;4.07;;;;;;;;;;10283417;28;20064;-61
2021/12/02 01:49:52;;;;;;;4.45;3.97;;;;;;;;;;10279054;28;20049;-63
2021/12/02 01:54:51;;;;;;;5.40;4.53;;;;;;;;;;10288766;28;20064;-63
2021/12/02 01:59:53;;;;;;;6.18;4.63;;;;;;;;;;10285281;28;20061;-63
2021/12/02 02:04:51;;;;;;;4.03;3.20;;;;;;;;;;10279233;28;20418;-63
2021/12/02 02:09:50;;;;;;;3.72;3.10;;;;;;;;;;10288185;28;20076;-63
2021/12/02 02:14:49;;;;;;;4.03;3.22;;;;;;;;;;10277273;28;20076;-63
2021/12/02 02:19:49;;;;;;;3.13;2.65;;;;;;;;;;10277944;28;20096;-63
2021/12/02 02:24:49;;;;;;;3.00;2.72;;;;;;;;;;10277721;28;20068;-63
2021/12/02 02:29:48;;;;;;;7.10;4.18;;;;;;;;;;10289865;28;20079;-62
2021/12/02 02:34:47;;;;;;;6.57;3.55;;;;;;;;;;10289989;28;20084;-63
2021/12/02 02:39:45;;;;;;;5.68;3.95;;;;;;;;;;10281372;28;20048;-63
2021/12/02 02:44:45;;;;;;;5.45;4.32;;;;;;;;;;10276264;28;20124;-63
2021/12/02 02:49:43;;;;;;;7.38;4.53;;;;;;;;;;10276692;28;20276;-63
2021/12/02 02:54:42;;;;;;;5.15;4.18;;;;;;;;;;10276345;28;20076;-63
2021/12/02 02:59:54;;;;;;;6.72;4.90;;;;;;;;;;10286475;28;20064;-62
2021/12/02 03:04:58;;;;;;;5.35;4.07;;;;;;;;;;10274193;28;20343;-62
2021/12/02 03:10:09;;;;;;;16.87;10.63;;;;;;;;;;10275795;28;20486;-63
2021/12/02 03:20:25;;;;;;;5.00;4.13;;;;;;;;;;10275518;28;20536;-63
2021/12/02 03:25:23;;;;;;;3.40;3.08;;;;;;;;;;10274062;28;20091;-63
2021/12/02 03:30:26;;;;;;;3.33;3.03;;;;;;;;;;10275077;28;20111;-62
2021/12/02 03:35:26;;;;;;;4.57;3.92;;;;;;;;;;10287791;28;20076;-63
2021/12/02 03:40:24;;;;;;;8.00;7.30;;;;;;;;;;10280396;28;20068;-62
2021/12/02 03:45:23;;;;;;;7.00;3.60;;;;;;;;;;10274755;28;20180;-63
2021/12/02 03:50:22;;;;;;;4.00;3.22;;;;;;;;;;10274194;28;20040;-63
2021/12/02 03:55:23;;;;;;;3.33;2.90;;;;;;;;;;10284069;28;20061;-63
2021/12/02 04:00:22;;;;;;;8.32;6.32;;;;;;;;;;10274123;28;20072;-62
2021/12/02 04:05:24;;;;;;;18.63;13.15;;;;;;;;;;10273864;28;20088;-63
2021/12/02 04:10:25;;;;;;;98.72;62.45;;;;;;;;;;10273728;28;20051;-63
2021/12/02 04:15:26;;;;;;;94.63;65.00;;;;;;;;;;10282007;28;20065;-63
2021/12/02 04:20:25;;;;;;;40.63;27.00;;;;;;;;;;10273570;28;20075;-62
2021/12/02 04:25:26;;;;;;;51.33;37.92;;;;;;;;;;10273264;28;20064;-63
2021/12/02 04:30:26;;;;;;;40.30;33.20;;;;;;;;;;10281095;28;20068;-63
2021/12/02 04:35:27;;;;;;;48.75;36.85;;;;;;;;;;10289991;28;20580;-63
2021/12/02 04:40:27;;;;;;;69.45;45.05;;;;;;;;;;10273089;28;20413;-62
2021/12/02 04:45:25;;;;;;;61.70;32.53;;;;;;;;;;10273069;28;20080;-63
2021/12/02 04:50:24;;;;;;;59.40;38.55;;;;;;;;;;10272666;28;20100;-63
2021/12/02 04:55:22;;;;;;;39.97;25.08;;;;;;;;;;10283283;28;20072;-63
2021/12/02 05:00:22;;;;;;;25.50;17.83;;;;;;;;;;10283245;28;20068;-63
2021/12/02 05:05:22;;;;;;;24.60;16.85;;;;;;;;;;10284064;28;20485;-63
2021/12/02 05:10:20;;;;;;;28.65;21.38;;;;;;;;;;10273281;28;20434;-63
2021/12/02 05:15:20;;;;;;;14.88;10.70;;;;;;;;;;10278143;28;20095;-63
2021/12/02 05:20:19;;;;;;;16.08;12.25;;;;;;;;;;10290608;28;20072;-63
2021/12/02 05:25:18;;;;;;;19.95;17.00;;;;;;;;;;10273337;28;20094;-63
2021/12/02 05:30:16;;;;;;;12.48;10.25;;;;;;;;;;10273672;28;20068;-62
2021/12/02 05:35:15;;;;;;;28.38;18.02;;;;;;;;;;10272884;28;20080;-63
2021/12/02 05:40:14;;;;;;;16.48;12.95;;;;;;;;;;10273385;28;20037;-63
2021/12/02 05:45:13;;;;;;;7.80;6.88;;;;;;;;;;10273718;28;20041;-63
2021/12/02 05:50:11;;;;;;;6.70;5.95;;;;;;;;;;10278283;28;20077;-63
2021/12/02 05:55:09;;;;;;;7.28;5.10;;;;;;;;;;10279709;28;20067;-63
2021/12/02 06:00:10;;;;;;;8.82;5.68;;;;;;;;;;10282911;28;20068;-63
2021/12/02 06:05:15;;;;;;;12.20;9.20;;;;;;;;;;10281156;28;20065;-62
2021/12/02 06:10:14;;;;;;;14.32;8.02;;;;;;;;;;10284287;28;20096;-63
2021/12/02 06:15:14;;;;;;;14.82;10.63;;;;;;;;;;10278049;28;20068;-62
2021/12/02 06:20:13;;;;;;;18.40;13.18;;;;;;;;;;10277222;28;20079;-62
2021/12/02 06:25:44;;;;;;;19.48;13.93;;;;;;;;;;10292856;28;20468;-62
2021/12/02 06:30:37;;;;;;;13.75;10.38;;;;;;;;;;10279392;28;20166;-62
2021/12/02 06:35:35;;;;;;;17.30;13.13;;;;;;;;;;10276685;28;20107;-61
2021/12/02 06:40:35;;;;;;;12.65;10.18;;;;;;;;;;10277145;28;20088;-62
2021/12/02 06:45:33;;;;;;;9.57;8.27;;;;;;;;;;10276780;28;20076;-62
2021/12/02 06:50:34;;;;;;;11.43;8.02;;;;;;;;;;10316671;28;20060;-62
2021/12/02 06:55:33;;;;;;;9.15;7.88;;;;;;;;;;10285077;28;20321;-62
2021/12/02 07:00:31;;;;;;;9.05;7.30;;;;;;;;;;10299336;28;20064;-62
2021/12/02 07:05:32;;;;;;;5.70;5.10;;;;;;;;;;10285501;28;20064;-63
2021/12/02 07:10:33;;;;;;;4.38;3.90;;;;;;;;;;10292621;28;20077;-63
2021/12/02 07:15:33;;;;;;;5.45;4.47;;;;;;;;;;10277535;28;20084;-63
2021/12/02 07:20:33;;;;;;;7.93;5.88;;;;;;;;;;10277365;28;20069;-63
2021/12/02 07:25:34;;;;;;;10.45;6.47;;;;;;;;;;10292318;28;20076;-63
2021/12/02 07:30:32;;;;;;;13.48;9.10;;;;;;;;;;10292404;28;20085;-64
2021/12/02 07:35:30;;;;;;;10.02;6.68;;;;;;;;;;10290393;28;20091;-65
2021/12/02 07:40:30;;;;;;;18.85;12.35;;;;;;;;;;10275466;28;20529;-63
2021/12/02 07:45:34;;;;;;;24.58;17.00;;;;;;;;;;10289173;28;20466;-64
2021/12/02 07:50:33;;;;;;;33.50;24.58;;;;;;;;;;10267646;28;20084;-63
2021/12/02 07:55:35;;;;;;;10.00;9.00;;;;;;;;;;10266889;28;20147;-64
2021/12/02 08:00:35;;;;;;;24.08;14.20;;;;;;;;;;10294716;28;20072;-64
2021/12/02 08:05:33;;;;;;;22.20;11.65;;;;;;;;;;10285121;28;20068;-64
2021/12/02 08:10:32;;;;;;;14.60;6.85;;;;;;;;;;10273569;28;20563;-64
2021/12/02 08:15:31;;;;;;;7.85;4.60;;;;;;;;;;10273852;28;20076;-62
2021/12/02 08:20:30;;;;;;;23.50;12.50;;;;;;;;;;10285134;28;20068;-62
2021/12/02 08:25:30;;;;;;;12.43;8.27;;;;;;;;;;10287865;28;20069;-64
2021/12/02 08:30:28;;;;;;;7.22;6.15;;;;;;;;;;10289723;28;20049;-63
2021/12/02 08:35:27;;;;;;;9.93;7.25;;;;;;;;;;10300522;28;20091;-63
2021/12/02 08:40:31;;;;;;;16.35;10.27;;;;;;;;;;10273062;28;20048;-63
2021/12/02 08:45:30;;;;;;;11.33;9.50;;;;;;;;;;10290835;28;20497;-63
2021/12/02 08:50:28;;;;;;;8.32;5.13;;;;;;;;;;10273226;28;20518;-64
2021/12/02 08:55:29;;;;;;;5.72;4.57;;;;;;;;;;10272939;28;20473;-63
2021/12/02 09:00:33;;;;;;;12.45;9.10;;;;;;;;;;10273476;28;20530;-63
2021/12/02 09:05:32;;;;;;;20.55;13.00;;;;;;;;;;10273162;28;20073;-63
2021/12/02 09:10:32;;;;;;;22.65;14.02;;;;;;;;;;10272385;28;20076;-64
2021/12/02 09:15:30;;;;;;;18.17;10.82;;;;;;;;;;10272499;28;20073;-64
2021/12/02 09:20:28;;;;;;;22.90;11.27;;;;;;;;;;10272170;28;20071;-64
2021/12/02 09:25:27;;;;;;;12.95;6.30;;;;;;;;;;10277514;28;20072;-64
2021/12/02 09:30:27;;;;;;;30.80;14.27;;;;;;;;;;10280455;28;20470;-64
2021/12/02 09:35:26;;;;;;;16.55;9.40;;;;;;;;;;10277766;28;20088;-64
2021/12/02 09:40:24;;;;;;;19.40;11.25;;;;;;;;;;10289849;28;20467;-64
2021/12/02 09:45:22;;;;;;;26.77;8.20;;;;;;;;;;10293361;28;20065;-64
2021/12/02 09:50:26;;;;;;;11.77;5.82;;;;;;;;;;10279545;28;20076;-64
2021/12/02 09:55:32;;;;;;;11.40;7.37;;;;;;;;;;10298337;28;20072;-64
2021/12/02 10:00:38;;;;;;;17.15;7.03;;;;;;;;;;10289885;28;20076;-64
2021/12/02 10:05:42;;;;;;;14.60;5.60;;;;;;;;;;10278791;28;20060;-64
2021/12/02 10:10:51;;;;;;;15.90;6.90;;;;;;;;;;10292478;28;20067;-63
2021/12/02 10:16:03;;;;;;;7.75;5.25;;;;;;;;;;10288092;28;20503;-64
2021/12/02 10:21:15;;;;;;;20.25;10.63;;;;;;;;;;10277452;28;20052;-63
2021/12/02 10:26:18;;;;;;;80.75;44.25;;;;;;;;;;10277385;28;20084;-63
2021/12/02 10:31:20;;;;;;;34.90;18.35;;;;;;;;;;10276756;28;20087;-63
2021/12/02 10:36:27;;;;;;;24.92;17.80;;;;;;;;;;10276013;28;20550;-63
2021/12/02 10:41:27;;;;;;;32.40;24.17;;;;;;;;;;10292494;28;20417;-63
2021/12/02 10:46:25;;;;;;;37.38;23.42;;;;;;;;;;10291314;28;20076;-64
2021/12/02 10:51:43;;;;;;;41.88;26.73;;;;;;;;;;10274931;28;20053;-63
2021/12/02 10:56:43;;;;;;;12.25;6.50;;;;;;;;;;10281136;28;20084;-63
2021/12/02 11:01:41;;;;;;;29.30;17.33;;;;;;;;;;10297573;28;20072;-62
2021/12/02 11:06:46;;;;;;;16.77;7.90;;;;;;;;;;10286303;28;20048;-63
2021/12/02 11:11:44;;;;;;;12.65;3.47;;;;;;;;;;10276150;28;20053;-64
2021/12/02 11:16:42;;;;;;;18.35;9.23;;;;;;;;;;10275541;28;20072;-64
2021/12/02 11:21:40;;;;;;;77.10;36.28;;;;;;;;;;10275155;28;20076;-64
2021/12/02 11:26:40;;;;;;;8.15;5.43;;;;;;;;;;10274780;28;20080;-64
2021/12/02 11:31:43;;;;;;;40.47;21.05;;;;;;;;;;10285623;28;20461;-63
2021/12/02 11:36:41;;;;;;;116.07;56.20;;;;;;;;;;10286681;28;20080;-64
2021/12/02 11:41:45;;;;;;;189.45;84.30;;;;;;;;;;10286979;28;20041;-64
2021/12/02 11:46:44;;;;;;;115.20;46.58;;;;;;;;;;10274280;28;20084;-63
2021/12/02 11:51:43;;;;;;;85.05;37.63;;;;;;;;;;10278658;28;20072;-63
2021/12/02 11:56:41;;;;;;;14.40;11.90;;;;;;;;;;10272967;28;20083;-62
2021/12/02 12:01:42;;;;;;;37.40;24.73;;;;;;;;;;10281321;28;20121;-64
2021/12/02 12:06:41;;;;;;;39.47;21.23;;;;;;;;;;10271450;28;20076;-64
2021/12/02 12:11:44;;;;;;;14.20;9.02;;;;;;;;;;10273259;28;20088;-62
2021/12/02 12:16:45;;;;;;;13.25;7.63;;;;;;;;;;10281797;28;20322;-63
2021/12/02 12:21:45;;;;;;;3.85;2.88;;;;;;;;;;10281659;28;20072;-63
2021/12/02 12:26:47;;;;;;;6.85;4.45;;;;;;;;;;10282919;28;20472;-64
2021/12/02 12:32:07;;;;;;;11.75;8.30;;;;;;;;;;10272360;28;20064;-64
2021/12/02 12:37:36;;;;;;;16.58;14.98;;;;;;;;;;10272400;28;20083;-64
2021/12/02 12:42:36;;;;;;;12.48;8.05;;;;;;;;;;10272906;28;20072;-64
2021/12/02 12:47:45;;;;;;;9.50;3.28;;;;;;;;;;10288086;28;20073;-64
2021/12/02 12:52:43;;;;;;;11.77;8.93;;;;;;;;;;10284802;28;20084;-64
2021/12/02 12:57:56;;;;;;;3.70;3.30;;;;;;;;;;10291033;28;20095;-64
2021/12/02 13:02:57;;;;;;;12.82;8.63;;;;;;;;;;10282096;28;20083;-64
2021/12/02 13:08:10;;;;;;;8.90;5.90;;;;;;;;;;10289423;28;20064;-64
2021/12/02 13:13:19;;;;;;;11.73;5.25;;;;;;;;;;10291554;28;20061;-64
2021/12/02 13:18:31;;;;;;;6.22;3.83;;;;;;;;;;10288675;28;20064;-64
2021/12/02 13:23:32;;;;;;;11.60;8.77;;;;;;;;;;10279854;28;20061;-63
2021/12/02 13:28:31;;;;;;;16.48;11.63;;;;;;;;;;10279669;28;20068;-64
2021/12/02 13:33:35;;;;;;;27.77;17.50;;;;;;;;;;10279263;28;20479;-64
2021/12/02 13:38:34;;;;;;;27.13;18.70;;;;;;;;;;10287888;28;20477;-64
2021/12/02 13:43:32;;;;;;;20.40;10.95;;;;;;;;;;10291938;28;20068;-64
2021/12/02 13:48:30;;;;;;;20.10;14.00;;;;;;;;;;10289956;28;20087;-63
2021/12/02 13:53:30;;;;;;;27.83;17.90;;;;;;;;;;10280928;28;20075;-64
2021/12/02 13:58:30;;;;;;;43.17;23.00;;;;;;;;;;10287114;28;20083;-63
2021/12/02 14:03:29;;;;;;;45.17;25.08;;;;;;;;;;10288400;28;20079;-63
2021/12/02 14:08:37;;;;;;;57.10;33.90;;;;;;;;;;10287539;28;20125;-64
2021/12/02 14:13:35;;;;;;;42.05;27.67;;;;;;;;;;10279237;28;20068;-64
2021/12/02 14:18:35;;;;;;;25.50;17.55;;;;;;;;;;10277773;28;20076;-64
2021/12/02 14:23:36;;;;;;;20.58;17.13;;;;;;;;;;10277982;28;20115;-64
2021/12/02 14:28:35;;;;;;;17.15;13.05;;;;;;;;;;10277505;28;20063;-63
2021/12/02 14:33:35;;;;;;;29.77;21.10;;;;;;;;;;10282514;28;20083;-63
2021/12/02 14:38:34;;;;;;;51.05;30.77;;;;;;;;;;10285564;28;20139;-63
2021/12/02 14:43:34;;;;;;;29.17;16.77;;;;;;;;;;10276871;28;20071;-64
2021/12/02 14:48:32;;;;;;;18.60;12.32;;;;;;;;;;10283114;28;20049;-64
2021/12/02 14:53:32;;;;;;;19.73;14.43;;;;;;;;;;10285691;28;20055;-63
2021/12/02 14:58:30;;;;;;;27.67;17.58;;;;;;;;;;10277914;28;20079;-64
2021/12/02 15:03:30;;;;;;;94.22;58.22;;;;;;;;;;10276213;28;20479;-64
2021/12/02 15:08:32;;;;;;;133.82;77.80;;;;;;;;;;10275696;28;20076;-64
2021/12/02 15:13:38;;;;;;;110.18;70.72;;;;;;;;;;10275606;28;20076;-64
2021/12/02 15:18:38;;;;;;;65.10;40.03;;;;;;;;;;10275374;28;20088;-64
2021/12/02 15:23:37;;;;;;;56.63;39.00;;;;;;;;;;10275395;28;20041;-62
2021/12/02 15:28:40;;;;;;;37.70;29.35;;;;;;;;;;10275305;28;20044;-63
2021/12/02 15:33:41;;;;;;;70.25;54.60;;;;;;;;;;10280372;28;20079;-62
2021/12/02 15:38:41;;;;;;;54.05;43.17;;;;;;;;;;10289335;28;20069;-62
2021/12/02 15:43:46;;;;;;;37.92;28.25;;;;;;;;;;10283908;28;20049;-64
2021/12/02 15:48:49;;;;;;;17.75;14.32;;;;;;;;;;10287488;28;20102;-63
2021/12/02 15:53:47;;;;;;;17.73;10.48;;;;;;;;;;10273669;28;20069;-63
2021/12/02 15:58:46;;;;;;;43.22;25.90;;;;;;;;;;10274089;28;20278;-63
2021/12/02 16:03:49;;;;;;;16.05;12.23;;;;;;;;;;10274072;28;20103;-63
2021/12/02 16:08:58;;;;;;;21.80;15.90;;;;;;;;;;10273742;28;20080;-63
2021/12/02 16:13:59;;;;;;;12.30;10.48;;;;;;;;;;10273607;28;20049;-63
2021/12/02 16:18:58;;;;;;;13.10;10.13;;;;;;;;;;10273311;28;20083;-62
2021/12/02 16:23:57;;;;;;;12.25;8.63;;;;;;;;;;10272513;28;20072;-62
2021/12/02 16:28:55;;;;;;;18.92;12.75;;;;;;;;;;10273141;28;20060;-62
2021/12/02 16:33:55;;;;;;;30.80;14.18;;;;;;;;;;10277860;28;20076;-63
2021/12/02 16:39:11;;;;;;;11.20;8.25;;;;;;;;;;10279169;28;20065;-63
2021/12/02 16:44:09;;;;;;;;;;;;;;;;;;10273606;28;20115;-63
2021/12/02 16:49:08;;;;;;;20.80;10.20;;;;;;;;;;10279027;28;19964;-63
2021/12/02 16:54:07;;;;;;;10.95;7.30;;;;;;;;;;10283120;28;20442;-63
2021/12/02 16:59:06;;;;;;;12.75;8.77;;;;;;;;;;10271061;28;20076;-63
2021/12/02 17:04:04;;;;;;;9.40;6.90;;;;;;;;;;10276029;28;20064;-63
2021/12/02 17:09:04;;;;;;;14.88;13.25;;;;;;;;;;10291613;28;20087;-63
2021/12/02 17:14:03;;;;;;;14.55;13.02;;;;;;;;;;10281821;28;20080;-63
2021/12/02 17:19:01;;;;;;;9.85;8.02;;;;;;;;;;10285357;28;20084;-63
2021/12/02 17:23:59;;;;;;;7.45;6.05;;;;;;;;;;10284966;28;20072;-63
2021/12/02 17:28:59;;;;;;;7.90;5.85;;;;;;;;;;10278644;28;20072;-63
2021/12/02 17:33:57;;;;;;;4.53;4.07;;;;;;;;;;10275424;28;20083;-63
2021/12/02 17:38:56;;;;;;;7.00;5.60;;;;;;;;;;10289960;28;20069;-63
2021/12/02 17:43:54;;;;;;;6.32;4.72;;;;;;;;;;10277427;28;20068;-67
2021/12/02 17:48:56;;;;;;;5.85;5.13;;;;;;;;;;10284918;28;20501;-63
2021/12/02 17:53:54;;;;;;;7.68;5.97;;;;;;;;;;10290700;28;20067;-63
2021/12/02 17:58:53;;;;;;;6.60;5.38;;;;;;;;;;10286033;28;20079;-63
2021/12/02 18:03:59;;;;;;;11.20;8.07;;;;;;;;;;10287426;28;20048;-64
2021/12/02 18:08:57;;;;;;;8.30;5.18;;;;;;;;;;10281422;28;20198;-63
2021/12/02 18:13:56;;;;;;;5.50;4.68;;;;;;;;;;10278741;28;20037;-63
2021/12/02 18:18:54;;;;;;;5.65;4.35;;;;;;;;;;10271173;28;20099;-63
2021/12/02 18:23:54;;;;;;;5.88;5.05;;;;;;;;;;10268999;28;20088;-63
2021/12/02 18:28:52;;;;;;;11.13;7.80;;;;;;;;;;10298553;28;20075;-65
2021/12/02 18:33:50;;;;;;;12.00;8.85;;;;;;;;;;10299913;28;20080;-64
2021/12/02 18:38:49;;;;;;;11.52;9.35;;;;;;;;;;10286655;28;20080;-63
2021/12/02 18:43:48;;;;;;;9.20;5.88;;;;;;;;;;10300368;28;20446;-62
2021/12/02 18:48:50;;;;;;;12.23;8.15;;;;;;;;;;10272816;28;20478;-63
2021/12/02 18:53:48;;;;;;;14.52;8.73;;;;;;;;;;10293756;28;20083;-63
2021/12/02 18:58:46;;;;;;;13.40;9.95;;;;;;;;;;10291951;28;20533;-63
2021/12/02 19:03:46;;;;;;;38.60;25.50;;;;;;;;;;10290243;28;20060;-63
2021/12/02 19:09:11;;;;;;;114.70;68.35;;;;;;;;;;10290374;28;20076;-63
2021/12/02 19:29:59;;;;;;;7.07;5.88;;;;;;;;;;10287827;28;20477;-63
2021/12/02 19:34:59;;;;;;;15.35;9.45;;;;;;;;;;10283325;28;20075;-63
2021/12/02 19:40:17;;;;;;;25.77;19.10;;;;;;;;;;10280609;28;20084;-63
2021/12/02 19:45:16;;;;;;;47.60;33.80;;;;;;;;;;10292512;28;20084;-63
2021/12/02 19:50:17;;;;;;;21.88;16.27;;;;;;;;;;10292567;28;20084;-64
2021/12/02 19:55:16;;;;;;;29.98;19.92;;;;;;;;;;10284608;28;20501;-63
2021/12/02 20:00:16;;;;;;;28.17;18.08;;;;;;;;;;10285265;28;20262;-63
2021/12/02 20:05:17;;;;;;;23.83;15.98;;;;;;;;;;10293566;28;20067;-64
2021/12/02 20:10:15;;;;;;;8.15;5.00;;;;;;;;;;10291280;28;20065;-63
2021/12/02 20:15:16;;;;;;;17.45;11.65;;;;;;;;;;10292442;28;20063;-63
2021/12/02 20:20:19;;;;;;;16.38;10.98;;;;;;;;;;10285412;28;20076;-64
2021/12/02 20:25:18;;;;;;;13.82;10.32;;;;;;;;;;10276293;28;20459;-63
2021/12/02 20:30:19;;;;;;;20.70;16.13;;;;;;;;;;10291284;28;20065;-64
2021/12/02 20:35:19;;;;;;;21.55;16.15;;;;;;;;;;10290997;28;20087;-63
2021/12/02 20:40:18;;;;;;;37.88;24.00;;;;;;;;;;10290403;28;20083;-64
2021/12/02 20:45:17;;;;;;;36.28;24.60;;;;;;;;;;10292609;28;20080;-64
2021/12/02 20:50:16;;;;;;;26.23;19.15;;;;;;;;;;10289689;28;20057;-63
2021/12/02 20:55:16;;;;;;;27.85;19.77;;;;;;;;;;10296904;28;20045;-62
2021/12/02 21:00:16;;;;;;;28.90;18.27;;;;;;;;;;10295988;28;20518;-63
2021/12/02 21:05:15;;;;;;;47.65;27.83;;;;;;;;;;10285371;28;20045;-63
2021/12/02 21:10:14;;;;;;;61.17;36.47;;;;;;;;;;10285428;28;20061;-63
2021/12/02 21:15:17;;;;;;;39.92;23.95;;;;;;;;;;10284099;28;20041;-63
2021/12/02 21:20:17;;;;;;;103.30;59.38;;;;;;;;;;10290281;28;20506;-63
2021/12/02 21:25:15;;;;;;;95.63;45.83;;;;;;;;;;10293522;28;20087;-64
2021/12/02 21:30:15;;;;;;;118.07;57.15;;;;;;;;;;10282526;28;20165;-63
2021/12/02 21:35:14;;;;;;;43.75;23.20;;;;;;;;;;10280296;28;20056;-63
2021/12/02 21:40:15;;;;;;;20.92;11.57;;;;;;;;;;10295238;28;20084;-63
2021/12/02 21:45:15;;;;;;;81.25;43.53;;;;;;;;;;10286663;28;20073;-63
2021/12/02 21:50:16;;;;;;;84.32;44.90;;;;;;;;;;10292643;28;20044;-62
2021/12/02 21:55:15;;;;;;;61.72;32.97;;;;;;;;;;10292137;28;20060;-63
2021/12/02 22:00:16;;;;;;;20.88;14.55;;;;;;;;;;10290560;28;20489;-63
2021/12/02 22:05:15;;;;;;;21.23;15.95;;;;;;;;;;10290908;28;20092;-63
2021/12/02 22:10:13;;;;;;;13.00;10.60;;;;;;;;;;10290241;28;20068;-63
2021/12/02 22:15:12;;;;;;;20.52;13.68;;;;;;;;;;10288897;28;20505;-63
2021/12/02 22:20:13;;;;;;;17.27;10.88;;;;;;;;;;10289320;28;20474;-64
2021/12/02 22:25:12;;;;;;;11.88;8.77;;;;;;;;;;10288800;28;20068;-64
2021/12/02 22:30:11;;;;;;;9.38;8.30;;;;;;;;;;10277379;28;20441;-63
2021/12/02 22:35:11;;;;;;;11.57;8.82;;;;;;;;;;10278141;28;20084;-63
2021/12/02 22:40:16;;;;;;;7.25;6.10;;;;;;;;;;10278480;28;20095;-63
2021/12/02 22:45:15;;;;;;;23.70;16.35;;;;;;;;;;10289296;28;20045;-64
2021/12/02 22:50:13;;;;;;;13.40;9.77;;;;;;;;;;10277083;28;20413;-63
2021/12/02 22:55:14;;;;;;;12.15;9.90;;;;;;;;;;10277916;28;20287;-63
2021/12/02 23:00:15;;;;;;;10.00;9.00;;;;;;;;;;10277594;28;20073;-63
2021/12/02 23:05:14;;;;;;;8.63;5.28;;;;;;;;;;10288445;28;20080;-63
2021/12/02 23:10:14;;;;;;;5.88;3.17;;;;;;;;;;10287656;28;20061;-63
2021/12/02 23:15:13;;;;;;;20.05;12.20;;;;;;;;;;10288106;28;20057;-63
2021/12/02 23:20:12;;;;;;;37.67;17.75;;;;;;;;;;10286944;28;20498;-63
2021/12/02 23:25:14;;;;;;;35.85;16.52;;;;;;;;;;10287583;28;20489;-64
2021/12/02 23:30:14;;;;;;;21.50;12.52;;;;;;;;;;10276209;28;20493;-63
2021/12/02 23:35:15;;;;;;;69.78;30.27;;;;;;;;;;10275604;28;20563;-63
2021/12/02 23:40:13;;;;;;;58.13;28.45;;;;;;;;;;10286538;28;20073;-64
2021/12/02 23:45:12;;;;;;;46.03;22.10;;;;;;;;;;10285720;28;20060;-63
2021/12/02 23:50:13;;;;;;;16.10;9.85;;;;;;;;;;10286572;28;20072;-63
2021/12/02 23:55:11;;;;;;;23.23;10.63;;;;;;;;;;10286238;28;20525;-64
